Time;durP1;ratioP1;P1;durP2;ratioP2;P2;SDS_P1;SDS_P2;PMS_P1;PMS_P2;Temp;Humidity;BMP_temperature;BMP_pressure;BME280_temperature;BME280_humidity;BME280_pressure;Samples;Min_cycle;Max_cycle;Signal;HPM_P1;HPM_P2
2023/02/21 02:14:15;;;;;;;18.75;9.70;;;;;;;;;;5119511;27;20042;-52
2023/02/21 02:16:49;;;;;;;14.05;7.80;;;11.10;97.70;;;;;;5127881;27;20043;-52
2023/02/21 02:19:46;;;;;;;13.93;8.45;;;11.00;97.20;;;;;;5125732;27;20028;-52
2023/02/21 02:22:22;;;;;;;14.35;9.80;;;10.90;97.20;;;;;;5125510;27;20039;-52
2023/02/21 02:24:57;;;;;;;15.13;10.15;;;;;;;;;;5127772;27;20085;-52
2023/02/21 02:27:42;;;;;;;12.18;8.25;;;;;;;;;;5127900;27;20024;-53
2023/02/21 02:30:27;;;;;;;10.73;6.80;;;;;;;;;;5118918;27;20019;-53
2023/02/21 02:33:29;;;;;;;11.00;7.53;;;;;;;;;;5123624;27;20058;-53
2023/02/21 02:36:13;;;;;;;12.00;7.63;;;;;;;;;;5081668;28;20036;-52
2023/02/21 02:38:51;;;;;;;12.60;8.40;;;;;;;;;;5082398;28;20044;-53
2023/02/21 02:41:25;;;;;;;14.90;9.40;;;;;;;;;;5082395;28;20083;-52
2023/02/21 02:43:54;;;;;;;13.35;9.05;;;;;;;;;;5078969;28;20048;-53
2023/02/21 02:46:33;;;;;;;13.85;9.40;;;;;;;;;;5050564;28;20051;-52
2023/02/21 02:49:02;;;;;;;36.47;22.88;;;;;;;;;;5063232;28;20079;-53
2023/02/21 02:51:28;;;;;;;93.47;52.88;;;10.60;95.70;;;;;;5058936;28;20048;-53
2023/02/21 02:53:54;;;;;;;32.70;20.23;;;10.70;95.80;;;;;;5067574;28;20145;-53
2023/02/21 02:56:22;;;;;;;14.63;9.30;;;10.80;95.70;;;;;;5066614;28;20048;-52
2023/02/21 02:58:50;;;;;;;26.63;16.85;;;10.70;95.60;;;;;;5045255;28;20048;-52
2023/02/21 03:01:25;;;;;;;40.88;27.10;;;10.70;95.40;;;;;;5044291;28;20051;-52
2023/02/21 03:04:14;;;;;;;30.48;18.60;;;10.80;95.40;;;;;;5011819;28;20041;-53
2023/02/21 03:06:53;;;;;;;27.60;15.63;;;10.80;95.70;;;;;;5027929;28;20061;-51
2023/02/21 03:09:28;;;;;;;23.75;16.13;;;10.70;95.50;;;;;;5075875;28;20163;-51
2023/02/21 03:12:02;;;;;;;11.05;6.93;;;10.40;95.80;;;;;;5121405;27;20084;-52
2023/02/21 03:14:40;;;;;;;11.63;7.93;;;10.20;96.20;;;;;;5119703;27;20082;-52
2023/02/21 03:17:10;;;;;;;11.45;6.63;;;10.20;96.20;;;;;;5124327;27;20422;-51
2023/02/21 03:19:42;;;;;;;9.30;5.95;;;10.20;96.20;;;;;;5122796;27;20038;-52
2023/02/21 03:22:15;;;;;;;6.70;4.70;;;10.10;96.20;;;;;;5119290;27;20043;-53
2023/02/21 03:24:45;;;;;;;6.85;4.85;;;10.10;96.30;;;;;;5122461;27;20048;-51
2023/02/21 03:27:11;;;;;;;6.97;5.25;;;10.10;96.30;;;;;;5088012;27;20039;-52
2023/02/21 03:29:39;;;;;;;9.20;5.93;;;10.10;96.60;;;;;;5121863;27;20047;-52
2023/02/21 03:34:46;;;;;;;9.93;6.88;;;10.10;96.30;;;;;;5123127;27;20470;-52
2023/02/21 03:37:35;;;;;;;14.10;7.45;;;10.00;96.30;;;;;;5123947;27;20039;-51
2023/02/21 03:40:01;;;;;;;10.13;6.75;;;10.00;96.50;;;;;;5043364;28;20040;-52
2023/02/21 03:42:27;;;;;;;11.95;7.78;;;10.00;96.40;;;;;;5072084;28;20044;-52
2023/02/21 03:44:53;;;;;;;12.85;7.45;;;10.10;96.30;;;;;;5031780;28;20040;-52
2023/02/21 03:47:18;;;;;;;10.18;6.35;;;10.10;96.40;;;;;;5070880;28;20067;-52
2023/02/21 03:49:44;;;;;;;7.55;4.80;;;10.10;96.20;;;;;;5044077;28;20128;-52
2023/02/21 03:52:12;;;;;;;7.53;5.15;;;10.10;96.20;;;;;;5071088;28;20040;-52
2023/02/21 03:54:38;;;;;;;7.45;5.35;;;10.20;96.30;;;;;;5054237;28;20437;-51
2023/02/21 03:57:04;;;;;;;8.80;5.53;;;10.30;96.10;;;;;;5070691;28;20044;-52
2023/02/21 03:59:30;;;;;;;8.35;4.30;;;10.40;96.00;;;;;;5071404;28;20549;-52
2023/02/21 04:01:55;;;;;;;11.18;7.70;;;10.50;95.90;;;;;;5066778;28;20029;-52
2023/02/21 04:04:21;;;;;;;13.23;8.38;;;10.40;95.90;;;;;;5060662;28;20036;-52
2023/02/21 04:06:47;;;;;;;14.00;9.15;;;10.30;96.10;;;;;;5043578;28;20123;-51
2023/02/21 04:09:13;;;;;;;9.50;6.53;;;10.20;96.20;;;;;;5025851;28;20060;-52
2023/02/21 04:11:45;;;;;;;13.48;7.95;;;10.10;96.20;;;;;;5059849;28;20032;-51
2023/02/21 04:14:11;;;;;;;9.98;6.85;;;10.20;96.20;;;;;;5042976;28;20179;-51
2023/02/21 04:16:36;;;;;;;10.27;6.72;;;10.30;96.30;;;;;;5072098;28;20120;-52
2023/02/21 04:19:02;;;;;;;15.82;10.02;;;10.30;96.20;;;;;;5082686;28;20201;-52
2023/02/21 04:21:29;;;;;;;18.23;10.75;;;10.30;96.10;;;;;;5088033;28;20039;-52
2023/02/21 04:23:55;;;;;;;38.75;14.30;;;10.40;96.00;;;;;;5084628;28;20115;-52
2023/02/21 04:26:22;;;;;;;71.78;16.13;;;10.40;96.10;;;;;;5084955;28;20050;-52
2023/02/21 04:28:49;;;;;;;62.10;23.70;;;10.30;96.20;;;;;;5084355;28;20165;-53
2023/02/21 04:31:16;;;;;;;51.03;17.90;;;10.20;96.10;;;;;;5073684;28;20036;-51
2023/02/21 04:33:42;;;;;;;59.35;18.25;;;10.20;96.30;;;;;;5084575;28;20120;-51
2023/02/21 04:36:08;;;;;;;48.95;15.80;;;10.00;96.30;;;;;;5099176;28;20128;-52
2023/02/21 04:38:36;;;;;;;13.60;7.30;;;10.00;96.50;;;;;;5082453;28;20085;-52
2023/02/21 04:41:03;;;;;;;15.43;8.32;;;9.80;96.40;;;;;;5091226;28;20124;-51
2023/02/21 04:43:29;;;;;;;9.32;7.03;;;9.90;96.40;;;;;;5084348;28;20405;-52
2023/02/21 04:45:54;;;;;;;8.43;6.35;;;9.60;96.50;;;;;;5075726;28;20028;-52
2023/02/21 04:48:20;;;;;;;7.95;5.43;;;9.60;96.80;;;;;;5090182;28;20090;-52
2023/02/21 04:50:46;;;;;;;7.28;5.43;;;9.50;96.80;;;;;;5092813;28;20377;-52
2023/02/21 04:53:12;;;;;;;10.38;6.28;;;9.70;96.70;;;;;;5079003;28;20475;-51
2023/02/21 04:55:38;;;;;;;8.73;6.13;;;9.70;96.80;;;;;;5082151;28;20062;-51
2023/02/21 04:58:04;;;;;;;6.65;4.60;;;9.60;96.60;;;;;;5115768;27;20066;-52
2023/02/21 05:00:29;;;;;;;6.13;4.22;;;9.60;96.70;;;;;;5106263;27;20122;-52
2023/02/21 05:02:55;;;;;;;7.63;3.88;;;9.50;96.70;;;;;;5116999;28;20028;-52
2023/02/21 05:05:21;;;;;;;10.05;4.78;;;9.60;96.70;;;;;;5121426;27;20043;-52
2023/02/21 05:07:47;;;;;;;6.22;4.47;;;9.40;96.90;;;;;;5086134;28;20031;-52
2023/02/21 05:10:14;;;;;;;7.32;4.38;;;9.40;97.00;;;;;;5122667;27;20425;-52
2023/02/21 05:12:40;;;;;;;9.10;4.72;;;;;;;;;;5122449;28;20035;-52
2023/02/21 05:15:07;;;;;;;6.32;4.70;;;9.20;96.80;;;;;;5112006;28;20476;-52
2023/02/21 05:17:33;;;;;;;12.93;5.97;;;9.00;97.20;;;;;;5121490;28;20028;-52
2023/02/21 05:19:59;;;;;;;7.05;4.32;;;8.90;97.40;;;;;;5122688;28;20483;-52
2023/02/21 05:22:25;;;;;;;8.50;4.15;;;;;;;;;;5120999;28;20062;-52
2023/02/21 05:24:51;;;;;;;7.35;4.03;;;8.30;98.20;;;;;;5100713;28;20039;-52
2023/02/21 05:27:19;;;;;;;7.10;4.25;;;8.50;98.30;;;;;;5125387;28;20430;-52
2023/02/21 05:29:47;;;;;;;7.40;4.85;;;8.60;98.10;;;;;;5123404;27;20171;-52
2023/02/21 05:32:14;;;;;;;7.47;5.55;;;8.70;98.10;;;;;;5129106;27;20054;-52
2023/02/21 05:34:43;;;;;;;10.40;6.65;;;8.80;98.00;;;;;;5128768;27;20058;-52
2023/02/21 05:37:10;;;;;;;9.82;6.38;;;8.90;98.20;;;;;;5129978;27;20133;-52
2023/02/21 05:39:36;;;;;;;24.25;11.63;;;9.20;97.80;;;;;;5131627;27;20740;-52
2023/02/21 05:42:01;;;;;;;27.10;9.60;;;9.30;97.70;;;;;;5132068;27;20122;-52
2023/02/21 05:44:27;;;;;;;17.73;8.38;;;9.40;97.60;;;;;;5128216;27;20027;-52
2023/02/21 05:46:53;;;;;;;7.13;5.15;;;9.40;97.50;;;;;;5129669;27;20023;-52
2023/02/21 05:49:19;;;;;;;8.00;4.53;;;9.40;97.40;;;;;;5113473;27;20096;-52
2023/02/21 05:51:44;;;;;;;9.65;5.45;;;9.40;97.30;;;;;;5131570;27;20034;-52
2023/02/21 05:54:16;;;;;;;13.10;8.60;;;9.40;97.20;;;;;;5128739;27;20062;-52
2023/02/21 05:56:44;;;;;;;17.45;8.88;;;9.30;97.50;;;;;;5131654;27;20071;-52
2023/02/21 05:59:11;;;;;;;27.77;16.08;;;9.30;97.50;;;;;;5129926;27;20035;-53
2023/02/21 06:01:37;;;;;;;15.90;11.50;;;9.40;97.70;;;;;;5125198;27;20019;-52
2023/02/21 06:04:03;;;;;;;10.88;7.88;;;9.50;97.40;;;;;;5125089;27;20023;-52
2023/02/21 06:06:29;;;;;;;35.67;24.67;;;9.70;97.50;;;;;;5126701;27;20027;-52
2023/02/21 06:08:55;;;;;;;38.15;25.88;;;9.90;98.00;;;;;;5132342;27;20023;-51
2023/02/21 06:11:27;;;;;;;36.70;22.77;;;11.30;97.30;;;;;;5129593;27;20043;-52
2023/02/21 06:13:55;;;;;;;46.38;26.75;;;13.00;97.00;;;;;;5125502;27;20364;-51
2023/02/21 06:16:21;;;;;;;58.55;35.97;;;15.10;96.20;;;;;;5130193;27;20039;-50
2023/02/21 06:18:51;;;;;;;71.18;42.30;;;;;;;;;;5126203;27;20023;-57
2023/02/21 06:21:17;;;;;;;73.70;43.45;;;;;;;;;;5131899;27;20052;-54
2023/02/21 06:23:43;;;;;;;68.88;40.42;;;19.00;99.90;;;;;;5128836;27;20027;-54
2023/02/21 06:26:09;;;;;;;63.42;41.03;;;19.80;90.90;;;;;;5125939;27;20391;-54
2023/02/21 06:28:35;;;;;;;61.92;39.53;;;;;;;;;;5125568;27;20032;-54
2023/02/21 06:31:03;;;;;;;55.83;37.40;;;;;;;;;;5126107;27;20034;-55
2023/02/21 06:33:29;;;;;;;57.53;33.85;;;;;;;;;;5105532;28;20040;-54
2023/02/21 06:35:55;;;;;;;43.08;28.80;;;;;;;;;;5118087;27;20048;-54
2023/02/21 06:38:21;;;;;;;35.92;23.13;;;24.80;93.00;;;;;;5121960;27;20367;-55
2023/02/21 06:40:47;;;;;;;27.48;19.30;;;;;;;;;;5125412;27;20031;-55
2023/02/21 06:43:13;;;;;;;35.15;23.73;;;24.30;99.90;;;;;;5125435;27;20059;-54
2023/02/21 06:45:38;;;;;;;43.90;28.25;;;22.20;78.90;;;;;;5127580;27;20120;-52
2023/02/21 06:48:04;;;;;;;41.35;26.30;;;22.40;80.00;;;;;;5125221;27;20027;-52
2023/02/21 06:50:30;;;;;;;29.92;20.77;;;22.40;79.80;;;;;;5118478;27;20028;-52
2023/02/21 06:52:56;;;;;;;31.60;19.83;;;;;;;;;;5127669;27;20070;-52
2023/02/21 06:55:22;;;;;;;26.50;17.85;;;;;;;;;;5125056;27;20036;-54
2023/02/21 06:57:49;;;;;;;30.77;19.75;;;;;;;;;;5127116;27;20034;-53
2023/02/21 07:00:16;;;;;;;28.35;20.50;;;;;;;;;;5127266;27;21129;-53
2023/02/21 07:02:42;;;;;;;26.58;19.33;;;;;;;;;;5127450;27;20023;-52
2023/02/21 07:05:09;;;;;;;26.05;19.45;;;;;;;;;;5118335;27;20050;-53
2023/02/21 07:07:34;;;;;;;27.58;19.17;;;28.30;73.10;;;;;;5118235;27;20031;-52
2023/02/21 07:10:00;;;;;;;25.40;17.98;;;27.10;73.60;;;;;;5126564;27;20047;-52
2023/02/21 07:12:26;;;;;;;27.67;18.02;;;26.60;73.60;;;;;;5126964;27;20034;-54
2023/02/21 07:14:53;;;;;;;29.98;21.23;;;;;;;;;;5115473;27;20119;-53
2023/02/21 07:17:19;;;;;;;46.55;29.05;;;;;;;;;;5126666;27;20035;-52
2023/02/21 07:19:45;;;;;;;37.65;26.15;;;28.70;73.40;;;;;;5127051;27;20023;-52
2023/02/21 07:22:10;;;;;;;34.95;22.45;;;28.90;73.00;;;;;;5126551;27;20042;-52
2023/02/21 07:24:36;;;;;;;32.53;24.17;;;29.20;72.60;;;;;;5105622;27;20043;-53
2023/02/21 07:27:03;;;;;;;41.60;23.25;;;29.80;71.90;;;;;;5124500;27;20532;-52
2023/02/21 07:29:29;;;;;;;34.58;23.58;;;;;;;;;;5124595;27;20084;-52
2023/02/21 07:31:55;;;;;;;30.55;21.75;;;30.10;70.50;;;;;;5124980;27;20023;-52
2023/02/21 07:34:21;;;;;;;28.15;19.65;;;;;;;;;;5123872;27;20367;-53
2023/02/21 07:36:48;;;;;;;37.30;22.27;;;30.60;69.00;;;;;;5122680;27;20623;-52
2023/02/21 07:39:14;;;;;;;36.50;22.27;;;29.80;68.80;;;;;;5121531;27;20031;-53
2023/02/21 07:41:40;;;;;;;33.92;22.27;;;30.00;69.40;;;;;;5126239;27;20489;-52
2023/02/21 07:44:06;;;;;;;41.75;24.40;;;;;;;;;;5123915;27;20040;-53
2023/02/21 07:46:33;;;;;;;20.17;14.38;;;;;;;;;;5120691;27;20031;-53
2023/02/21 07:48:59;;;;;;;16.90;12.55;;;;;;;;;;5123078;27;20374;-52
2023/02/21 07:51:32;;;;;;;22.77;14.90;;;;;;;;;;5126168;27;20031;-52
2023/02/21 07:53:58;;;;;;;20.75;12.45;;;;;;;;;;5125622;27;20031;-53
2023/02/21 07:56:24;;;;;;;17.02;11.77;;;;;;;;;;5124346;27;20402;-53
2023/02/21 07:58:50;;;;;;;17.88;11.50;;;;;;;;;;5123899;27;20106;-52
2023/02/21 08:01:16;;;;;;;17.40;11.10;;;;;;;;;;5128268;27;20051;-53
2023/02/21 08:03:43;;;;;;;23.90;12.00;;;;;;;;;;5124059;27;20035;-53
2023/02/21 08:06:10;;;;;;;13.55;10.63;;;;;;;;;;5118985;27;20558;-53
2023/02/21 08:08:37;;;;;;;16.75;11.32;;;;;;;;;;5071667;28;20122;-52
2023/02/21 08:11:03;;;;;;;19.92;12.10;;;;;;;;;;5116962;27;20031;-53
2023/02/21 08:13:29;;;;;;;16.08;11.57;;;;;;;;;;5117945;27;20527;-53
2023/02/21 08:15:56;;;;;;;12.75;11.05;;;;;;;;;;5103976;28;20063;-53
2023/02/21 08:18:23;;;;;;;15.82;10.80;;;;;;;;;;5103672;28;20050;-53
2023/02/21 08:20:56;;;;;;;14.13;11.18;;;;;;;;;;5119776;27;20031;-53
2023/02/21 08:23:22;;;;;;;19.30;12.13;;;;;;;;;;5123525;27;20045;-54
2023/02/21 08:25:49;;;;;;;14.73;10.23;;;;;;;;;;5123905;27;20042;-54
2023/02/21 08:28:15;;;;;;;21.15;11.30;;;;;;;;;;5125184;27;20031;-53
2023/02/21 08:30:42;;;;;;;14.43;10.52;;;;;;;;;;5084163;28;20039;-53
2023/02/21 08:33:08;;;;;;;13.77;10.30;;;;;;;;;;5064284;27;20047;-53
2023/02/21 08:35:36;;;;;;;15.48;10.48;;;;;;;;;;5122246;27;20517;-54
2023/02/21 08:38:02;;;;;;;20.67;11.57;;;;;;;;;;5123287;27;20111;-53
2023/02/21 08:40:29;;;;;;;19.88;13.20;;;;;;;;;;5122993;27;20043;-53
2023/02/21 08:42:56;;;;;;;19.00;12.82;;;;;;;;;;5069794;28;20134;-52
2023/02/21 08:45:23;;;;;;;14.10;12.55;;;;;;;;;;5114101;27;20035;-55
2023/02/21 08:47:50;;;;;;;20.23;13.75;;;;;;;;;;5120374;27;20035;-54
2023/02/21 08:50:17;;;;;;;17.17;13.20;;;;;;;;;;5123139;27;20032;-53
2023/02/21 08:52:45;;;;;;;17.15;13.90;;;;;;;;;;5111994;27;20047;-53
2023/02/21 08:55:11;;;;;;;18.58;13.55;;;;;;;;;;5087730;28;20483;-53
2023/02/21 08:57:37;;;;;;;21.20;15.30;;;;;;;;;;5122559;27;20039;-52
2023/02/21 09:00:10;;;;;;;22.35;14.88;;;;;;;;;;5114797;27;20426;-52
2023/02/21 09:02:38;;;;;;;100.88;65.20;;;;;;;;;;5127889;27;20038;-53
2023/02/21 09:05:16;;;;;;;42.15;31.55;;;;;;;;;;5126924;27;20432;-54
2023/02/21 09:07:42;;;;;;;26.90;22.27;;;;;;;;;;5089717;27;20451;-54
2023/02/21 09:10:09;;;;;;;16.10;13.70;;;;;;;;;;5105826;27;20155;-53
2023/02/21 09:12:36;;;;;;;13.32;11.93;;;;;;;;;;5130927;27;20027;-53
2023/02/21 09:15:02;;;;;;;20.30;12.07;;;;;;;;;;5118292;28;20428;-52
2023/02/21 09:17:32;;;;;;;15.55;10.93;;;;;;;;;;5128064;28;20387;-53
2023/02/21 09:19:59;;;;;;;16.15;12.07;;;;;;;;;;5128944;28;20181;-50
2023/02/21 09:22:25;;;;;;;18.42;11.75;;;;;;;;;;5127704;28;20026;-55
2023/02/21 09:24:51;;;;;;;13.05;9.65;;;;;;;;;;5125947;28;20065;-51
2023/02/21 09:27:18;;;;;;;10.07;8.55;;;;;;;;;;5137336;27;20058;-48
2023/02/21 09:29:46;;;;;;;19.23;14.77;;;;;;;;;;5123478;28;20531;-54
2023/02/21 09:32:12;;;;;;;10.15;8.32;;;;;;;;;;5124669;28;20079;-55
2023/02/21 09:34:38;;;;;;;12.57;7.85;;;;;;;;;;5122544;28;20100;-51
2023/02/21 09:37:05;;;;;;;10.27;7.05;;;;;;;;;;5115300;28;20059;-50
2023/02/21 09:39:31;;;;;;;8.90;7.28;;;;;;;;;;5124413;28;20031;-51
2023/02/21 09:41:58;;;;;;;9.80;6.93;;;;;;;;;;5117146;28;20051;-50
2023/02/21 09:44:26;;;;;;;9.65;7.00;;;;;;;;;;5120661;28;20031;-50
2023/02/21 09:46:58;;;;;;;19.77;15.07;;;;;;;;;;5117027;28;20043;-49
2023/02/21 09:49:29;;;;;;;61.55;38.75;;;;;;;;;;5121495;28;20043;-50
2023/02/21 09:51:56;;;;;;;76.03;56.40;;;;;;;;;;5124195;28;20035;-50
2023/02/21 09:54:25;;;;;;;18.98;15.48;;;;;;;;;;5123970;28;20027;-50
2023/02/21 09:56:51;;;;;;;10.25;8.80;;;;;;;;;;5121565;28;20065;-50
2023/02/21 09:59:17;;;;;;;9.90;8.50;;;;;;;;;;5120260;28;20506;-50
2023/02/21 10:01:49;;;;;;;10.05;8.95;;;;;;;;;;5117859;28;20434;-49
2023/02/21 10:04:19;;;;;;;15.63;11.85;;;;;;;;;;5124561;28;20360;-49
2023/02/21 10:06:54;;;;;;;9.27;6.97;;;;;;;;;;5118597;28;20040;-50
2023/02/21 10:09:44;;;;;;;8.77;7.50;;;;;;;;;;5119547;28;20478;-49
2023/02/21 10:12:30;;;;;;;7.90;7.10;;;;;;;;;;5087611;28;20044;-49
2023/02/21 10:15:11;;;;;;;16.33;11.27;;;;;;;;;;5059016;28;20044;-51
2023/02/21 10:17:52;;;;;;;14.77;12.05;;;;;;;;;;5062292;28;20543;-50
2023/02/21 10:20:31;;;;;;;8.05;7.22;;;;;;;;;;5061903;28;20533;-49
2023/02/21 10:22:58;;;;;;;7.22;6.53;;;;;;;;;;5061552;28;20040;-49
2023/02/21 10:25:24;;;;;;;8.63;7.53;;;;;;;;;;5070001;28;20041;-50
2023/02/21 10:27:51;;;;;;;8.25;7.45;;;;;;;;;;5063616;28;20495;-50
2023/02/21 10:30:25;;;;;;;10.38;7.35;;;;;;;;;;5061484;28;20054;-50
2023/02/21 10:32:52;;;;;;;10.48;8.57;;;;;;;;;;5047791;28;20072;-50
2023/02/21 10:35:18;;;;;;;11.98;7.20;;;;;;;;;;5058550;28;20037;-50
2023/02/21 10:37:47;;;;;;;7.40;6.30;;;;;;;;;;5049660;28;20075;-50
2023/02/21 10:40:31;;;;;;;8.23;6.30;;;;;;;;;;5059467;28;20048;-49
2023/02/21 10:43:16;;;;;;;7.25;6.53;;;;;;;;;;5071137;28;20040;-50
2023/02/21 10:45:50;;;;;;;7.32;6.15;;;;;;;;;;5070411;28;20048;-50
2023/02/21 10:48:18;;;;;;;7.63;6.22;;;;;;;;;;5086355;28;20130;-49
2023/02/21 10:50:52;;;;;;;7.78;6.38;;;;;;;;;;5127268;27;20030;-50
2023/02/21 10:53:38;;;;;;;7.07;5.72;;;;;;;;;;5127563;27;20030;-51
2023/02/21 10:56:07;;;;;;;7.75;5.55;;;;;;;;;;5123014;27;20051;-50
2023/02/21 10:58:34;;;;;;;9.63;6.00;;;;;;;;;;5098279;27;20074;-57
2023/02/21 11:01:20;;;;;;;7.65;5.65;;;;;;;;;;5125508;27;20051;-50
2023/02/21 11:03:51;;;;;;;7.90;6.35;;;;;;;;;;5122948;27;20127;-48
2023/02/21 11:06:26;;;;;;;17.10;6.68;;;26.80;63.80;;;;;;5125222;27;20032;-49
2023/02/21 11:08:52;;;;;;;7.07;5.90;;;27.40;65.50;;;;;;5124662;27;20167;-52
2023/02/21 11:11:31;;;;;;;9.13;6.40;;;;;;;;;;5132044;27;20032;-48
2023/02/21 11:14:13;;;;;;;10.02;5.97;;;;;;;;;;5139068;27;20047;-52
2023/02/21 11:16:39;;;;;;;7.13;6.03;;;25.40;65.70;;;;;;5120475;27;20069;-53
2023/02/21 11:19:06;;;;;;;7.75;5.97;;;24.50;66.80;;;;;;5119674;27;20114;-47
2023/02/21 11:21:32;;;;;;;7.43;5.70;;;24.00;81.10;;;;;;5115024;27;20035;-52
2023/02/21 11:24:03;;;;;;;7.22;5.97;;;23.50;69.00;;;;;;5126061;27;20024;-54
2023/02/21 11:26:47;;;;;;;10.80;6.47;;;23.30;84.00;;;;;;5126488;27;20027;-50
2023/02/21 11:29:17;;;;;;;8.13;6.35;;;23.00;71.50;;;;;;5117257;27;20031;-47
2023/02/21 11:31:44;;;;;;;11.43;6.05;;;23.10;71.10;;;;;;5125868;27;20035;-52
2023/02/21 11:34:13;;;;;;;8.70;6.55;;;23.20;71.30;;;;;;5123602;27;20537;-48
2023/02/21 11:36:44;;;;;;;6.97;6.28;;;23.30;83.70;;;;;;5121474;27;20035;-53
2023/02/21 11:39:22;;;;;;;57.60;12.37;;;22.90;70.70;;;;;;5124954;27;20035;-48
2023/02/21 11:41:53;;;;;;;8.65;6.28;;;23.30;71.20;;;;;;5122174;27;21410;-51
2023/02/21 11:44:39;;;;;;;10.70;5.63;;;23.20;72.60;;;;;;5123958;27;20028;-53
2023/02/21 11:47:38;;;;;;;6.53;5.28;;;22.80;71.60;;;;;;5125089;27;20035;-54
2023/02/21 11:50:22;;;;;;;11.57;6.53;;;22.60;70.70;;;;;;5126105;27;20065;-53
2023/02/21 11:53:27;;;;;;;8.60;5.18;;;22.40;71.20;;;;;;5121560;27;20019;-51
2023/02/21 11:56:05;;;;;;;9.60;4.60;;;22.60;79.50;;;;;;5125048;27;20031;-51
2023/02/21 11:59:20;;;;;;;11.85;6.10;;;22.70;72.40;;;;;;5124769;27;20084;-48
2023/02/21 12:01:53;;;;;;;12.35;7.15;;;22.80;71.90;;;;;;5064355;28;20492;-53
2023/02/21 12:04:47;;;;;;;6.43;5.65;;;23.50;70.80;;;;;;5070516;28;20033;-48
2023/02/21 12:07:34;;;;;;;8.70;5.47;;;23.60;70.80;;;;;;5054008;28;20464;-49
2023/02/21 12:10:08;;;;;;;8.73;5.13;;;23.50;75.80;;;;;;5054435;28;20047;-52
2023/02/21 12:12:40;;;;;;;9.85;5.25;;;;;;;;;;5053964;28;20033;-52
2023/02/21 12:15:11;;;;;;;9.15;5.78;;;;;;;;;;5070709;28;20055;-50
2023/02/21 12:17:43;;;;;;;8.63;6.00;;;;;;;;;;5070345;28;20508;-51
2023/02/21 12:20:18;;;;;;;11.40;6.10;;;24.50;70.10;;;;;;5070342;28;20040;-52
2023/02/21 12:23:04;;;;;;;10.85;5.00;;;23.80;70.10;;;;;;5054279;28;20028;-51
2023/02/21 12:26:22;;;;;;;12.75;8.55;;;24.10;70.90;;;;;;5070773;28;20432;-50
2023/02/21 12:28:53;;;;;;;6.55;5.32;;;24.00;70.80;;;;;;4914446;29;20044;-49
2023/02/21 12:31:24;;;;;;;9.83;6.97;;;23.60;70.10;;;;;;4914642;29;20101;-51
2023/02/21 12:34:26;;;;;;;13.90;8.80;;;23.60;71.00;;;;;;4914947;29;20378;-49
2023/02/21 12:37:10;;;;;;;;;;;23.70;70.70;;;;;;4915472;29;20052;-48
2023/02/21 12:40:08;;;;;;;13.05;5.90;;;24.10;70.30;;;;;;4957526;28;20009;-49
2023/02/21 12:42:45;;;;;;;11.38;7.20;;;23.90;70.80;;;;;;4961322;28;20027;-50
2023/02/21 12:45:19;;;;;;;8.35;5.20;;;23.80;71.00;;;;;;4971717;28;20038;-53
2023/02/21 12:47:58;;;;;;;12.48;8.95;;;24.00;69.80;;;;;;4961427;28;20030;-48
2023/02/21 12:50:29;;;;;;;14.88;10.18;;;24.30;70.50;;;;;;4963807;28;20407;-51
2023/02/21 12:53:01;;;;;;;7.60;5.27;;;24.20;70.10;;;;;;4959346;28;20126;-49
2023/02/21 12:55:35;;;;;;;13.45;8.40;;;25.00;70.50;;;;;;4970385;28;20046;-49
2023/02/21 12:58:12;;;;;;;9.30;4.18;;;25.00;70.40;;;;;;4929949;28;20074;-50
2023/02/21 13:00:46;;;;;;;6.88;4.40;;;25.20;69.20;;;;;;4961296;28;20054;-50
2023/02/21 13:04:05;;;;;;;5.70;4.10;;;25.10;69.30;;;;;;4961370;28;20078;-49
2023/02/21 13:06:50;;;;;;;15.57;9.60;;;25.10;69.50;;;;;;5122314;27;20032;-49
2023/02/21 13:09:25;;;;;;;11.63;6.70;;;25.30;69.00;;;;;;5124947;27;20463;-50
2023/02/21 13:12:00;;;;;;;4.93;3.97;;;24.60;69.30;;;;;;5121860;27;20367;-51
2023/02/21 13:14:36;;;;;;;23.08;12.93;;;25.00;69.20;;;;;;5115438;28;20031;-54
2023/02/21 13:17:02;;;;;;;18.52;11.18;;;25.10;69.40;;;;;;5119857;28;20051;-53
2023/02/21 13:19:38;;;;;;;11.05;6.35;;;25.10;68.30;;;;;;5123659;28;20099;-49
2023/02/21 13:25:37;;;;;;;14.43;6.10;;;;;;;;;;5110582;28;20047;-53
2023/02/21 13:28:17;;;;;;;7.75;5.40;;;24.70;69.60;;;;;;5110348;28;20114;-52
2023/02/21 13:30:58;;;;;;;23.63;6.05;;;24.90;69.50;;;;;;5110851;28;20066;-50
2023/02/21 13:33:37;;;;;;;6.40;4.10;;;;;;;;;;5110945;28;20118;-51
2023/02/21 13:36:20;;;;;;;5.30;3.20;;;25.20;66.90;;;;;;5069376;28;20560;-55
2023/02/21 13:38:55;;;;;;;11.32;3.50;;;24.90;68.20;;;;;;5043806;28;20047;-54
2023/02/21 13:41:27;;;;;;;7.25;3.40;;;24.40;68.70;;;;;;5069737;28;20029;-50
2023/02/21 13:43:53;;;;;;;;;;;24.70;69.00;;;;;;5067000;28;20396;-51
2023/02/21 13:46:31;;;;;;;10.82;3.67;;;25.00;69.70;;;;;;5069799;28;19904;-50
2023/02/21 13:49:34;;;;;;;13.30;6.88;;;25.10;69.30;;;;;;5069762;28;20040;-49
2023/02/21 13:52:23;;;;;;;7.85;5.15;;;25.20;68.80;;;;;;5065912;28;20068;-51
2023/02/21 13:55:19;;;;;;;11.57;6.88;;;24.90;68.90;;;;;;5073346;28;20044;-51
2023/02/21 13:57:48;;;;;;;11.15;8.75;;;24.70;68.70;;;;;;5073336;28;20040;-52
2023/02/21 14:00:26;;;;;;;6.47;4.38;;;24.40;69.10;;;;;;5073288;28;20061;-50
2023/02/21 14:03:16;;;;;;;7.95;6.55;;;24.70;69.60;;;;;;5101167;28;20052;-48
2023/02/21 14:05:45;;;;;;;6.68;4.15;;;24.60;70.10;;;;;;5097277;28;20544;-51
2023/02/21 14:08:31;;;;;;;6.10;3.78;;;25.40;70.10;;;;;;5127880;27;20055;-48
2023/02/21 14:10:57;;;;;;;5.90;3.08;;;25.00;68.60;;;;;;5128164;27;20062;-53
2023/02/21 14:13:29;;;;;;;7.65;5.07;;;24.60;68.70;;;;;;5126352;27;20066;-50
2023/02/21 14:16:07;;;;;;;7.00;3.97;;;24.20;69.20;;;;;;5120884;27;20047;-51
2023/02/21 14:18:39;;;;;;;7.82;5.28;;;;;;;;;;5122975;27;20035;-49
2023/02/21 14:21:26;;;;;;;5.05;3.80;;;23.50;69.70;;;;;;5127077;27;20087;-51
2023/02/21 14:24:02;;;;;;;8.00;5.70;;;23.20;80.40;;;;;;5127328;27;20035;-52
2023/02/21 14:26:42;;;;;;;10.23;4.10;;;22.80;71.20;;;;;;5127029;27;20110;-50
2023/02/21 14:29:30;;;;;;;4.88;3.38;;;22.60;72.60;;;;;;5121063;27;20498;-50
2023/02/21 14:32:02;;;;;;;5.47;3.35;;;22.50;72.50;;;;;;5126862;27;20040;-52
2023/02/21 14:34:40;;;;;;;12.05;5.75;;;22.70;73.30;;;;;;5122181;27;20038;-53
2023/02/21 14:37:51;;;;;;;27.20;17.60;;;23.00;72.90;;;;;;5121225;27;20069;-54
2023/02/21 14:40:23;;;;;;;13.90;6.70;;;23.20;71.90;;;;;;5133165;27;20035;-53
2023/02/21 14:43:27;;;;;;;6.18;4.00;;;23.50;71.80;;;;;;5128314;27;20038;-55
2023/02/21 14:46:16;;;;;;;10.18;3.90;;;23.50;72.10;;;;;;5115279;27;20487;-55
2023/02/21 14:49:03;;;;;;;36.35;8.55;;;23.90;73.20;;;;;;5120111;27;20476;-58
2023/02/21 14:51:49;;;;;;;5.63;3.35;;;24.20;73.90;;;;;;5125960;27;20525;-54
2023/02/21 14:54:26;;;;;;;15.27;5.55;;;24.30;88.30;;;;;;5100146;27;20527;-55
2023/02/21 14:57:11;;;;;;;6.55;3.97;;;24.20;82.20;;;;;;5124594;27;20058;-52
2023/02/21 14:59:50;;;;;;;11.95;7.28;;;24.10;86.00;;;;;;5105315;28;20035;-52
2023/02/21 15:02:37;;;;;;;6.70;4.13;;;24.10;88.60;;;;;;5105737;28;20112;-56
2023/02/21 15:05:24;;;;;;;8.27;3.80;;;24.30;92.00;;;;;;5096629;28;20565;-55
2023/02/21 15:08:09;;;;;;;8.63;4.35;;;24.20;91.90;;;;;;5111992;28;20062;-56
2023/02/21 15:10:42;;;;;;;10.55;5.45;;;24.20;92.40;;;;;;5109740;28;20028;-53
2023/02/21 15:13:24;;;;;;;13.48;8.05;;;24.30;88.80;;;;;;5104837;28;20122;-53
2023/02/21 15:16:13;;;;;;;;;;;24.30;73.30;;;;;;5107481;28;20506;-52
2023/02/21 15:18:41;;;;;;;21.73;6.78;;;24.30;73.00;;;;;;5120043;27;19912;-56
2023/02/21 15:21:09;;;;;;;8.20;4.90;;;24.30;73.20;;;;;;5117273;27;20035;-53
2023/02/21 15:23:36;;;;;;;5.75;4.47;;;24.20;72.90;;;;;;5122194;27;20031;-52
2023/02/21 15:26:33;;;;;;;7.10;4.30;;;24.20;73.00;;;;;;5117069;27;20571;-48
2023/02/21 15:29:16;;;;;;;10.70;4.45;;;24.10;73.10;;;;;;5087306;27;20494;-55
2023/02/21 15:32:02;;;;;;;5.72;4.13;;;24.00;73.20;;;;;;5101420;28;20054;-54
2023/02/21 15:34:35;;;;;;;10.57;4.38;;;23.90;73.10;;;;;;5121825;27;20051;-54
2023/02/21 15:37:18;;;;;;;17.85;7.88;;;23.70;73.30;;;;;;5087164;28;20047;-55
2023/02/21 15:39:51;;;;;;;6.25;4.95;;;23.60;80.40;;;;;;5124062;27;20127;-52
2023/02/21 15:42:17;;;;;;;17.67;9.93;;;23.60;93.60;;;;;;5089368;27;20039;-57
2023/02/21 15:44:53;;;;;;;13.98;8.48;;;23.60;87.50;;;;;;5113060;28;20081;-54
2023/02/21 15:47:39;;;;;;;22.73;5.43;;;23.40;79.20;;;;;;5091572;28;20149;-56
2023/02/21 15:50:08;;;;;;;19.48;6.28;;;23.20;73.70;;;;;;5070858;28;20498;-55
2023/02/21 15:52:50;;;;;;;12.15;5.82;;;23.10;82.30;;;;;;5111624;28;20035;-53
2023/02/21 15:55:29;;;;;;;28.33;15.15;;;22.90;73.40;;;;;;5112540;28;20023;-55
2023/02/21 15:58:04;;;;;;;36.03;18.23;;;22.70;73.70;;;;;;5077734;28;20046;-55
2023/02/21 16:00:39;;;;;;;39.58;24.25;;;22.50;74.00;;;;;;5111511;28;20069;-56
2023/02/21 16:03:31;;;;;;;37.30;16.25;;;22.30;74.70;;;;;;5068023;28;20036;-57
2023/02/21 16:06:14;;;;;;;18.58;10.68;;;;;;;;;;5111770;28;20054;-59